createdAt,value
2023-02-24T00:00:27.983Z,85
2023-02-24T00:30:10.505Z,86
2023-02-24T01:00:22.542Z,87
2023-02-24T01:30:08.961Z,88
2023-02-24T02:00:13.509Z,86
2023-02-24T02:30:04.392Z,86
2023-02-24T03:00:17.183Z,86
2023-02-24T03:30:11.353Z,86
2023-02-24T04:00:12.385Z,86
2023-02-24T04:30:23.778Z,87
2023-02-24T05:00:06.372Z,89
2023-02-24T05:30:08.277Z,87
2023-02-24T06:30:08.117Z,88
2023-02-24T07:00:12.605Z,88
2023-02-24T07:30:13.098Z,89
2023-02-24T08:00:24.164Z,87
2023-02-24T08:30:18.479Z,87
2023-02-24T09:00:09.599Z,83
2023-02-24T09:30:00.588Z,81
2023-02-24T10:00:05.634Z,80
2023-02-24T10:30:14.933Z,81
2023-02-24T11:00:24.572Z,78
2023-02-24T11:30:18.026Z,76
2023-02-24T12:00:12.067Z,76
2023-02-24T12:30:03.102Z,73
2023-02-24T13:00:06.829Z,76
2023-02-24T13:30:27.407Z,78
2023-02-24T14:00:10.165Z,79
2023-02-24T14:30:14.519Z,82
2023-02-24T15:00:03.043Z,83
2023-02-24T16:00:03.934Z,82
2023-02-24T16:30:15.551Z,85
2023-02-24T17:00:30.377Z,87
2023-02-24T17:30:10.351Z,86
2023-02-24T18:00:23.790Z,89
2023-02-24T18:30:14.907Z,87
2023-02-24T19:00:17.207Z,87
2023-02-24T19:30:19.416Z,87
2023-02-24T20:30:00.560Z,86
2023-02-24T21:00:21.661Z,84
2023-02-24T21:30:23.868Z,86
2023-02-24T22:00:16.530Z,86
2023-02-24T22:30:07.536Z,86
2023-02-24T23:00:11.477Z,86
2023-02-24T23:30:14.315Z,87
